createdAt,value
2018-12-04T00:01:13.267Z,5.97
2018-12-04T00:03:47.071Z,5.33
2018-12-04T00:06:20.881Z,6.53
2018-12-04T00:08:54.887Z,5.10
2018-12-04T00:14:25.725Z,5.90
2018-12-04T00:16:59.644Z,8.20
2018-12-04T00:19:33.510Z,6.27
2018-12-04T00:22:07.316Z,5.97
2018-12-04T00:24:41.475Z,4.27
2018-12-04T00:27:15.380Z,5.40
2018-12-04T00:29:49.084Z,8.20
2018-12-04T00:32:22.804Z,8.43
2018-12-04T00:34:56.898Z,4.50
2018-12-04T00:37:30.759Z,4.43
2018-12-04T00:40:06.561Z,8.83
2018-12-04T00:42:40.245Z,4.63
2018-12-04T00:45:14.371Z,5.93
2018-12-04T00:47:48.205Z,5.33
2018-12-04T00:50:22.097Z,7.70
2018-12-04T00:52:55.987Z,6.50
2018-12-04T00:55:33.892Z,4.73
2018-12-04T00:58:07.798Z,7.20
2018-12-04T01:00:41.807Z,4.90
2018-12-04T01:03:15.516Z,4.00
2018-12-04T01:05:49.726Z,3.93
2018-12-04T01:08:23.499Z,7.17
2018-12-04T01:10:57.642Z,4.27
2018-12-04T01:13:31.550Z,3.00
2018-12-04T01:16:05.361Z,4.13
2018-12-04T01:18:39.467Z,3.30
2018-12-04T01:21:13.272Z,3.37
2018-12-04T01:23:47.141Z,2.63
2018-12-04T01:26:21.155Z,2.40
2018-12-04T01:28:55.199Z,4.10
2018-12-04T01:31:29.109Z,3.77
2018-12-04T01:34:03.116Z,4.00
2018-12-04T01:36:36.921Z,6.70
2018-12-04T01:39:10.829Z,6.43
2018-12-04T01:41:44.798Z,6.97
2018-12-04T01:44:18.848Z,5.23
2018-12-04T01:46:52.964Z,5.43
2018-12-04T01:49:26.852Z,6.83
2018-12-04T01:52:00.879Z,6.47
2018-12-04T01:54:34.887Z,5.93
2018-12-04T01:57:08.787Z,7.33
2018-12-04T01:59:42.804Z,5.60
2018-12-04T02:02:16.814Z,5.47
2018-12-04T02:04:50.824Z,4.57
2018-12-04T02:07:24.679Z,8.43
2018-12-04T02:09:58.843Z,4.47
2018-12-04T02:12:32.982Z,5.57
2018-12-04T02:15:07.068Z,5.13
2018-12-04T02:17:40.976Z,5.37
2018-12-04T02:20:14.882Z,5.43
2018-12-04T02:22:48.648Z,5.77
2018-12-04T02:25:22.807Z,6.27
2018-12-04T02:27:56.655Z,3.70
2018-12-04T02:30:30.719Z,4.27
2018-12-04T02:33:04.938Z,7.27
2018-12-04T02:35:38.741Z,4.93
2018-12-04T02:38:12.747Z,4.93
2018-12-04T02:40:46.831Z,5.43
2018-12-04T02:43:20.972Z,3.90
2018-12-04T02:45:54.877Z,4.80
2018-12-04T02:48:28.888Z,3.47
2018-12-04T02:51:02.645Z,3.20
2018-12-04T02:53:36.705Z,4.03
2018-12-04T02:56:10.507Z,13.23
2018-12-04T02:58:44.416Z,7.53
2018-12-04T03:01:18.323Z,15.00
2018-12-04T03:03:53.971Z,3.13
2018-12-04T03:06:27.837Z,3.10
2018-12-04T03:09:02.003Z,3.67
2018-12-04T03:11:36.001Z,2.53
2018-12-04T03:14:11.754Z,4.07
2018-12-04T03:16:45.499Z,3.57
2018-12-04T03:19:19.569Z,2.83
2018-12-04T03:21:53.473Z,2.80
2018-12-04T03:24:27.380Z,1.37
2018-12-04T03:27:01.288Z,1.97
2018-12-04T03:29:35.209Z,1.33
2018-12-04T03:32:09.309Z,1.00
2018-12-04T03:34:43.216Z,0.70
2018-12-04T03:37:17.128Z,0.60
2018-12-04T03:39:51.246Z,0.57
2018-12-04T03:42:25.247Z,0.60
2018-12-04T03:44:59.256Z,1.13
2018-12-04T03:47:33.063Z,0.70
2018-12-04T03:50:07.171Z,0.50
2018-12-04T03:52:41.185Z,0.67
2018-12-04T03:55:15.191Z,0.63
2018-12-04T03:57:49.407Z,0.80
2018-12-04T04:00:23.313Z,1.33
2018-12-04T04:02:57.425Z,0.90
2018-12-04T04:05:31.230Z,1.20
2018-12-04T04:08:05.139Z,1.03
2018-12-04T04:10:39.252Z,2.23
2018-12-04T04:13:13.055Z,1.27
2018-12-04T04:15:46.860Z,1.67
2018-12-04T04:18:20.736Z,1.30
2018-12-04T04:20:54.778Z,3.53
2018-12-04T04:23:28.689Z,2.97
2018-12-04T04:26:02.594Z,2.27
2018-12-04T04:28:36.602Z,4.03
2018-12-04T04:31:10.407Z,3.47
2018-12-04T04:33:44.453Z,3.03
2018-12-04T04:36:18.372Z,2.97
2018-12-04T04:38:52.335Z,3.93
2018-12-04T04:41:26.786Z,6.03
2018-12-04T04:44:00.867Z,6.13
2018-12-04T04:46:34.879Z,3.80
2018-12-04T04:49:08.885Z,6.13
2018-12-04T04:51:42.897Z,4.20
2018-12-04T04:54:16.865Z,4.80
2018-12-04T04:56:51.027Z,3.03
2018-12-04T04:59:24.823Z,2.60
2018-12-04T05:01:58.731Z,7.93
2018-12-04T05:04:32.843Z,7.57
2018-12-04T05:07:06.594Z,5.87
2018-12-04T05:09:40.764Z,4.57
2018-12-04T05:12:14.771Z,6.00
2018-12-04T05:14:48.781Z,3.57
2018-12-04T05:17:22.688Z,4.33
2018-12-04T05:19:56.499Z,6.97
2018-12-04T05:22:30.503Z,3.27
2018-12-04T05:25:05.023Z,4.97
2018-12-04T05:27:38.830Z,4.13
2018-12-04T05:30:12.837Z,4.07
2018-12-04T05:32:47.052Z,4.43
2018-12-04T05:35:20.812Z,4.23
2018-12-04T05:37:55.073Z,3.37
2018-12-04T05:40:29.044Z,3.43
2018-12-04T05:43:03.096Z,6.73
2018-12-04T05:45:37.102Z,4.63
2018-12-04T05:48:11.009Z,3.17
2018-12-04T05:50:44.880Z,2.83
2018-12-04T05:53:37.153Z,5.03
2018-12-04T05:56:11.064Z,4.13
2018-12-04T05:58:45.025Z,2.37
2018-12-04T06:01:19.040Z,3.33
2018-12-04T06:03:53.191Z,4.20
2018-12-04T06:06:26.946Z,4.23
2018-12-04T06:09:01.006Z,4.73
2018-12-04T06:11:35.016Z,4.77
2018-12-04T06:14:09.028Z,3.53
2018-12-04T06:16:42.831Z,4.10
2018-12-04T06:19:16.738Z,4.43
2018-12-04T06:21:50.486Z,5.77
2018-12-04T06:24:24.655Z,9.30
2018-12-04T06:26:58.517Z,5.40
2018-12-04T06:29:32.675Z,6.20
2018-12-04T06:32:06.550Z,5.43
2018-12-04T06:34:41.088Z,7.83
2018-12-04T06:37:14.957Z,4.03
2018-12-04T06:39:48.895Z,5.53
2018-12-04T06:42:23.132Z,4.53
2018-12-04T06:44:57.226Z,3.33
2018-12-04T06:47:31.217Z,4.90
2018-12-04T06:50:08.441Z,7.47
2018-12-04T06:55:21.681Z,4.50
2018-12-04T06:57:57.125Z,4.83
2018-12-04T07:00:31.033Z,3.90
2018-12-04T07:03:05.144Z,2.83
2018-12-04T07:05:39.052Z,3.53
2018-12-04T07:08:12.754Z,5.47
2018-12-04T07:10:46.866Z,3.30
2018-12-04T07:13:21.081Z,4.37
2018-12-04T07:15:54.989Z,4.60
2018-12-04T07:18:28.853Z,3.50
2018-12-04T07:21:02.869Z,3.90
2018-12-04T07:23:36.918Z,5.40
2018-12-04T07:26:10.926Z,3.60
2018-12-04T07:28:44.834Z,7.47
2018-12-04T07:31:18.810Z,3.43
2018-12-04T07:33:52.796Z,4.00
2018-12-04T07:36:26.862Z,5.97
2018-12-04T07:39:00.826Z,6.00
2018-12-04T07:41:34.783Z,5.50
2018-12-04T07:44:08.788Z,3.17
2018-12-04T07:46:42.696Z,4.17
2018-12-04T07:49:16.588Z,5.23
2018-12-04T07:51:50.614Z,3.73
2018-12-04T07:54:24.726Z,6.57
2018-12-04T07:56:58.892Z,6.93
2018-12-04T07:59:32.848Z,7.00
2018-12-04T08:02:06.754Z,5.07
2018-12-04T08:04:40.664Z,4.67
2018-12-04T08:07:14.776Z,5.87
2018-12-04T08:09:48.784Z,4.63
2018-12-04T08:12:23.551Z,7.00
2018-12-04T08:14:57.625Z,5.60
2018-12-04T08:17:31.529Z,6.00
2018-12-04T08:20:06.845Z,4.13
2018-12-04T08:22:40.636Z,4.83
2018-12-04T08:25:14.685Z,5.40
2018-12-04T08:27:48.593Z,8.33
2018-12-04T08:30:22.705Z,5.73
2018-12-04T08:32:56.817Z,11.27
2018-12-04T08:35:30.929Z,8.23
2018-12-04T08:38:05.044Z,8.13
2018-12-04T08:40:39.871Z,5.77
2018-12-04T08:43:14.084Z,4.63
2018-12-04T08:45:48.094Z,3.20
2018-12-04T08:48:21.906Z,6.07
2018-12-04T08:50:55.807Z,4.20
2018-12-04T08:53:29.771Z,5.73
2018-12-04T08:56:04.549Z,7.23
2018-12-04T08:58:38.450Z,5.47
2018-12-04T09:01:12.415Z,5.40
2018-12-04T09:03:46.470Z,6.87
2018-12-04T09:06:20.378Z,6.13
2018-12-04T09:08:54.146Z,7.87
2018-12-04T09:11:28.077Z,5.30
2018-12-04T09:14:02.714Z,7.43
2018-12-04T09:16:36.621Z,6.07
2018-12-04T09:19:10.374Z,4.60
2018-12-04T09:21:44.358Z,7.70
2018-12-04T09:24:18.369Z,5.40
2018-12-04T09:26:52.678Z,9.63
2018-12-04T09:29:26.635Z,8.43
2018-12-04T09:32:00.786Z,5.40
2018-12-04T09:34:34.588Z,7.37
2018-12-04T09:37:08.494Z,9.83
2018-12-04T09:39:42.402Z,4.90
2018-12-04T09:42:16.314Z,5.60
2018-12-04T09:44:50.216Z,6.43
2018-12-04T09:47:23.973Z,7.23
2018-12-04T09:49:57.928Z,8.23
2018-12-04T09:52:31.698Z,7.47
2018-12-04T09:55:06.239Z,6.60
2018-12-04T09:57:40.163Z,8.23
2018-12-04T10:00:14.174Z,5.90
2018-12-04T10:02:48.080Z,7.00
2018-12-04T10:05:21.988Z,10.87
2018-12-04T10:07:55.896Z,8.57
2018-12-04T10:10:29.803Z,4.77
2018-12-04T10:13:03.710Z,6.37
2018-12-04T10:15:37.434Z,7.63
2018-12-04T10:18:11.558Z,7.17
2018-12-04T10:20:45.739Z,6.97
2018-12-04T10:23:19.710Z,8.57
2018-12-04T10:25:53.861Z,8.33
2018-12-04T10:28:27.769Z,10.13
2018-12-04T10:31:07.215Z,5.93
2018-12-04T10:33:41.013Z,9.40
2018-12-04T10:36:14.826Z,7.17
2018-12-04T10:38:48.576Z,5.30
2018-12-04T10:41:22.424Z,6.93
2018-12-04T10:43:56.382Z,6.47
2018-12-04T10:46:30.342Z,5.23
2018-12-04T10:49:04.213Z,8.23
2018-12-04T10:51:38.259Z,6.93
2018-12-04T10:54:12.069Z,7.07
2018-12-04T10:56:46.234Z,5.87
2018-12-04T10:59:20.390Z,4.40
2018-12-04T11:01:59.937Z,4.97
2018-12-04T11:04:33.780Z,8.67
2018-12-04T11:07:07.971Z,5.27
2018-12-04T11:09:42.163Z,7.30
2018-12-04T11:12:16.072Z,8.27
2018-12-04T11:14:49.878Z,5.17
2018-12-04T11:17:23.886Z,5.53
2018-12-04T11:19:57.648Z,7.87
2018-12-04T11:22:31.700Z,7.37
2018-12-04T11:25:07.162Z,12.67
2018-12-04T11:27:40.993Z,6.67
2018-12-04T11:30:14.959Z,4.70
2018-12-04T11:32:48.765Z,7.90
2018-12-04T11:35:22.470Z,6.27
2018-12-04T11:37:56.579Z,7.70
2018-12-04T11:40:30.486Z,6.93
2018-12-04T11:43:04.396Z,4.90
2018-12-04T11:45:39.224Z,6.30
2018-12-04T11:48:13.129Z,9.47
2018-12-04T11:50:47.139Z,6.30
2018-12-04T11:53:21.004Z,6.37
2018-12-04T11:55:55.018Z,5.20
2018-12-04T11:58:29.028Z,7.80
2018-12-04T12:01:03.329Z,10.73
2018-12-04T12:03:37.291Z,7.27
2018-12-04T12:06:11.378Z,5.53
2018-12-04T12:08:45.515Z,6.70
2018-12-04T12:11:19.527Z,6.37
2018-12-04T12:13:53.534Z,6.67
2018-12-04T12:16:27.442Z,7.23
2018-12-04T12:19:01.452Z,4.90
2018-12-04T12:21:35.368Z,5.00
2018-12-04T12:24:09.166Z,6.53
2018-12-04T12:26:43.184Z,5.83
2018-12-04T12:29:17.042Z,6.23
2018-12-04T12:31:51.057Z,6.47
2018-12-04T12:34:25.102Z,6.13
2018-12-04T12:36:58.908Z,8.60
2018-12-04T12:39:33.480Z,6.03
2018-12-04T12:42:07.645Z,6.47
2018-12-04T12:44:41.652Z,4.70
2018-12-04T12:47:15.560Z,6.33
2018-12-04T12:49:49.342Z,8.17
2018-12-04T12:52:23.476Z,6.70
2018-12-04T12:54:57.383Z,6.97
2018-12-04T12:57:31.190Z,5.33
2018-12-04T13:00:06.433Z,7.87
2018-12-04T13:02:40.956Z,8.67
2018-12-04T13:05:14.965Z,7.80
2018-12-04T13:07:48.857Z,5.60
2018-12-04T13:10:22.869Z,6.70
2018-12-04T13:12:56.988Z,7.50
2018-12-04T13:15:30.999Z,8.57
2018-12-04T13:18:04.905Z,6.97
2018-12-04T13:20:38.607Z,7.47
2018-12-04T13:23:12.791Z,8.47
2018-12-04T13:25:46.807Z,7.03
2018-12-04T13:28:20.956Z,8.33
2018-12-04T13:30:54.763Z,6.73
2018-12-04T13:33:28.907Z,8.20
2018-12-04T13:36:02.932Z,8.53
2018-12-04T13:38:37.010Z,8.40
2018-12-04T13:41:11.141Z,8.10
2018-12-04T13:43:45.153Z,6.57
2018-12-04T13:46:18.939Z,9.43
2018-12-04T13:48:53.069Z,7.23
2018-12-04T13:51:26.844Z,7.00
2018-12-04T13:54:01.017Z,5.70
2018-12-04T13:56:34.997Z,8.27
2018-12-04T13:59:09.023Z,5.73
2018-12-04T14:01:42.973Z,7.60
2018-12-04T14:04:17.377Z,8.60
2018-12-04T14:06:51.405Z,8.37
2018-12-04T14:09:26.235Z,10.73
2018-12-04T14:12:00.385Z,6.80
2018-12-04T14:14:34.251Z,9.10
2018-12-04T14:17:08.433Z,7.20
2018-12-04T14:19:42.385Z,10.33
2018-12-04T14:22:16.440Z,11.30
2018-12-04T14:24:51.193Z,9.40
2018-12-04T14:27:25.280Z,7.07
2018-12-04T14:29:59.477Z,5.97
2018-12-04T14:32:33.590Z,6.50
2018-12-04T14:35:07.805Z,7.60
2018-12-04T14:37:41.922Z,9.27
2018-12-04T14:40:15.935Z,8.50
2018-12-04T14:42:52.147Z,5.40
2018-12-04T14:45:26.303Z,8.80
2018-12-04T14:48:00.221Z,10.97
2018-12-04T14:50:35.245Z,10.47
2018-12-04T14:53:09.134Z,7.60
2018-12-04T14:55:43.028Z,8.53
2018-12-04T14:58:17.073Z,9.37
2018-12-04T15:00:50.931Z,8.07
2018-12-04T15:03:24.969Z,10.83
2018-12-04T15:05:59.008Z,7.70
2018-12-04T15:08:32.773Z,11.37
2018-12-04T15:11:06.929Z,6.43
2018-12-04T15:13:40.803Z,7.80
2018-12-04T15:16:14.773Z,8.40
2018-12-04T15:18:48.847Z,6.47
2018-12-04T15:21:22.876Z,11.23
2018-12-04T15:23:56.859Z,8.40
2018-12-04T15:26:30.764Z,9.57
2018-12-04T15:29:05.008Z,9.13
2018-12-04T15:31:39.121Z,31.27
2018-12-04T15:34:12.897Z,8.70
2018-12-04T15:36:46.853Z,9.47
2018-12-04T15:39:20.916Z,10.93
2018-12-04T15:41:55.047Z,12.00
2018-12-04T15:44:29.169Z,10.37
2018-12-04T15:47:03.204Z,8.83
2018-12-04T15:49:37.390Z,12.57
2018-12-04T15:52:11.461Z,11.20
2018-12-04T15:54:45.450Z,8.07
2018-12-04T15:57:19.394Z,8.87
2018-12-04T15:59:53.482Z,8.70
2018-12-04T16:02:27.514Z,6.70
2018-12-04T16:05:01.320Z,10.87
2018-12-04T16:07:35.125Z,7.40
2018-12-04T16:10:09.953Z,10.03
2018-12-04T16:12:43.759Z,7.63
2018-12-04T16:15:18.694Z,10.40
2018-12-04T16:17:52.563Z,7.70
2018-12-04T16:20:26.611Z,7.97
2018-12-04T16:23:00.628Z,10.03
2018-12-04T16:25:34.730Z,10.33
2018-12-04T16:28:08.739Z,9.07
2018-12-04T16:30:42.954Z,9.30
2018-12-04T16:33:17.183Z,9.43
2018-12-04T16:35:52.203Z,12.50
2018-12-04T16:38:26.386Z,7.03
2018-12-04T16:41:00.528Z,4.93
2018-12-04T16:43:34.416Z,8.57
2018-12-04T16:46:08.548Z,10.30
2018-12-04T16:48:42.660Z,7.37
2018-12-04T16:51:16.465Z,7.30
2018-12-04T16:53:50.427Z,8.83
2018-12-04T16:56:24.587Z,9.45
2018-12-04T16:58:58.598Z,6.20
2018-12-04T17:01:33.733Z,8.17
2018-12-04T17:04:07.742Z,11.90
2018-12-04T17:06:41.704Z,12.87
2018-12-04T17:09:15.666Z,9.55
2018-12-04T17:11:49.365Z,11.40
2018-12-04T17:14:23.301Z,11.83
2018-12-04T17:16:57.566Z,9.70
2018-12-04T17:19:31.599Z,10.33
2018-12-04T17:22:05.503Z,11.57
2018-12-04T17:24:39.947Z,7.77
2018-12-04T17:27:13.941Z,8.10
2018-12-04T17:29:48.048Z,8.17
2018-12-04T17:32:22.204Z,8.17
2018-12-04T17:34:56.271Z,10.03
2018-12-04T17:37:30.181Z,11.17
2018-12-04T17:40:05.212Z,9.53
2018-12-04T17:42:39.118Z,9.97
2018-12-04T17:45:13.232Z,8.77
2018-12-04T17:47:47.305Z,9.83
2018-12-04T17:50:21.536Z,10.13
2018-12-04T17:52:55.574Z,9.20
2018-12-04T17:55:29.474Z,9.27
2018-12-04T17:58:03.318Z,9.90
2018-12-04T18:00:38.316Z,12.50
2018-12-04T18:03:12.121Z,8.60
2018-12-04T18:05:46.025Z,10.90
2018-12-04T18:08:20.035Z,9.23
2018-12-04T18:10:53.840Z,13.87
2018-12-04T18:13:27.747Z,11.20
2018-12-04T18:16:01.559Z,8.53
2018-12-04T18:18:35.459Z,13.17
2018-12-04T18:21:09.366Z,14.07
2018-12-04T18:23:43.582Z,14.60
2018-12-04T18:26:18.511Z,9.30
2018-12-04T18:28:52.521Z,10.17
2018-12-04T18:31:26.703Z,9.60
2018-12-04T18:34:00.747Z,11.03
2018-12-04T18:36:34.961Z,13.03
2018-12-04T18:39:08.971Z,7.87
2018-12-04T18:41:43.083Z,7.43
2018-12-04T18:44:17.094Z,10.20
2018-12-04T18:46:51.104Z,9.53
2018-12-04T18:49:24.908Z,9.47
2018-12-04T18:51:59.002Z,9.33
2018-12-04T18:54:33.041Z,11.20
2018-12-04T18:57:07.171Z,11.97
2018-12-04T18:59:41.270Z,11.63
2018-12-04T19:02:15.174Z,9.53
2018-12-04T19:04:49.281Z,9.63
2018-12-04T19:07:23.367Z,12.57
2018-12-04T19:09:57.394Z,14.43
2018-12-04T19:12:31.303Z,13.43
2018-12-04T19:15:05.886Z,9.93
2018-12-04T19:17:39.938Z,9.73
2018-12-04T19:20:15.140Z,14.33
2018-12-04T19:22:49.233Z,9.83
2018-12-04T19:25:23.093Z,8.00
2018-12-04T19:27:56.896Z,7.90
2018-12-04T19:30:30.803Z,12.20
2018-12-04T19:33:04.710Z,12.00
2018-12-04T19:35:38.632Z,11.13
2018-12-04T19:38:12.500Z,12.77
2018-12-04T19:40:46.744Z,10.03
2018-12-04T19:43:20.649Z,9.77
2018-12-04T19:45:54.516Z,7.93
2018-12-04T19:48:28.668Z,10.67
2018-12-04T19:51:02.476Z,13.83
2018-12-04T19:53:37.020Z,15.30
2018-12-04T19:56:11.018Z,15.17
2018-12-04T19:58:44.914Z,12.37
2018-12-04T20:01:18.829Z,15.90
2018-12-04T20:03:52.845Z,12.13
2018-12-04T20:06:26.840Z,12.30
2018-12-04T20:09:00.860Z,15.33
2018-12-04T20:11:34.676Z,15.73
2018-12-04T20:14:08.869Z,12.47
2018-12-04T20:16:42.888Z,13.87
2018-12-04T20:19:16.864Z,12.20
2018-12-04T20:21:50.853Z,11.70
2018-12-04T20:24:24.994Z,9.27
2018-12-04T20:26:59.123Z,10.77
2018-12-04T20:29:33.141Z,13.80
2018-12-04T20:32:07.213Z,9.00
2018-12-04T20:34:41.253Z,10.07
2018-12-04T20:37:15.571Z,17.53
2018-12-04T20:39:49.335Z,13.80
2018-12-04T20:42:23.637Z,17.33
2018-12-04T20:44:57.704Z,12.23
2018-12-04T20:47:31.979Z,8.67
2018-12-04T20:50:06.439Z,11.00
2018-12-04T20:52:40.245Z,11.10
2018-12-04T20:55:14.163Z,12.57
2018-12-04T20:57:48.348Z,10.30
2018-12-04T21:00:22.374Z,11.47
2018-12-04T21:02:59.773Z,17.20
2018-12-04T21:05:33.617Z,11.33
2018-12-04T21:08:07.580Z,10.73
2018-12-04T21:10:41.587Z,12.33
2018-12-04T21:13:15.599Z,11.40
2018-12-04T21:15:49.619Z,16.10
2018-12-04T21:18:23.933Z,16.77
2018-12-04T21:20:57.848Z,13.83
2018-12-04T21:23:31.960Z,15.57
2018-12-04T21:26:05.862Z,16.13
2018-12-04T21:28:41.913Z,17.17
2018-12-04T21:31:21.450Z,13.37
2018-12-04T21:34:00.987Z,13.17
2018-12-04T21:36:40.441Z,12.33
2018-12-04T21:39:19.349Z,18.30
2018-12-04T21:41:58.022Z,12.00
2018-12-04T21:44:37.869Z,13.70
2018-12-04T21:47:17.425Z,12.83
2018-12-04T21:49:51.390Z,11.47
2018-12-04T21:52:25.528Z,12.77
2018-12-04T21:54:59.422Z,12.70
2018-12-04T21:57:33.557Z,15.57
2018-12-04T22:00:07.828Z,16.87
2018-12-04T22:02:41.980Z,10.90
2018-12-04T22:05:15.987Z,11.57
2018-12-04T22:07:49.998Z,15.50
2018-12-04T22:10:23.904Z,11.33
2018-12-04T22:12:57.813Z,11.00
2018-12-04T22:15:31.674Z,12.03
2018-12-04T22:18:05.728Z,15.87
2018-12-04T22:20:39.533Z,15.70
2018-12-04T22:23:13.497Z,15.13
2018-12-04T22:25:47.553Z,14.70
2018-12-04T22:28:21.357Z,20.13
2018-12-04T22:30:55.372Z,16.87
2018-12-04T22:33:29.376Z,16.37
2018-12-04T22:36:04.412Z,15.93
2018-12-04T22:38:38.318Z,15.60
2018-12-04T22:41:12.386Z,15.97
2018-12-04T22:43:46.438Z,12.10
2018-12-04T22:46:20.246Z,15.30
2018-12-04T22:48:54.356Z,14.43
2018-12-04T22:51:28.365Z,13.77
2018-12-04T22:54:02.340Z,15.30
2018-12-04T22:56:36.756Z,13.60
2018-12-04T22:59:10.805Z,14.93
2018-12-04T23:01:44.712Z,15.87
2018-12-04T23:04:18.925Z,19.87
2018-12-04T23:06:53.043Z,13.33
2018-12-04T23:09:27.012Z,16.13
2018-12-04T23:12:01.226Z,14.40
2018-12-04T23:14:35.272Z,12.27
2018-12-04T23:17:09.234Z,13.37
2018-12-04T23:19:43.395Z,14.67
2018-12-04T23:22:17.505Z,13.13
2018-12-04T23:24:51.708Z,12.87
2018-12-04T23:27:25.832Z,12.30
2018-12-04T23:29:59.841Z,10.33
2018-12-04T23:32:33.748Z,13.07
2018-12-04T23:35:07.963Z,14.40
2018-12-04T23:37:41.836Z,12.17
2018-12-04T23:40:15.883Z,13.13
2018-12-04T23:42:49.787Z,14.40
2018-12-04T23:45:23.503Z,11.50
2018-12-04T23:47:57.499Z,12.10
2018-12-04T23:50:31.305Z,13.40
2018-12-04T23:53:05.315Z,10.77
2018-12-04T23:55:39.325Z,10.37
2018-12-04T23:58:13.438Z,12.27
